sensor_id;sensor_type;location;lat;lon;timestamp;temperature;humidity
843;DHT22;407;48.884;9.126;2022-12-18T00:01:42;-8.20;1.00
843;DHT22;407;48.884;9.126;2022-12-18T00:04:16;-8.10;47.10
843;DHT22;407;48.884;9.126;2022-12-18T00:06:44;-8.10;35.90
843;DHT22;407;48.884;9.126;2022-12-18T00:09:10;-8.00;1.00
843;DHT22;407;48.884;9.126;2022-12-18T00:11:36;-8.10;1.00
843;DHT22;407;48.884;9.126;2022-12-18T00:14:01;-7.10;1.00
843;DHT22;407;48.884;9.126;2022-12-18T00:16:28;-8.10;1.00
843;DHT22;407;48.884;9.126;2022-12-18T00:18:56;-8.20;1.00
843;DHT22;407;48.884;9.126;2022-12-18T00:21:25;-8.20;1.00
843;DHT22;407;48.884;9.126;2022-12-18T00:23:51;-8.30;1.00
843;DHT22;407;48.884;9.126;2022-12-18T00:26:23;-8.40;1.00
843;DHT22;407;48.884;9.126;2022-12-18T00:28:50;-8.40;1.00
843;DHT22;407;48.884;9.126;2022-12-18T00:31:18;-8.30;99.90
843;DHT22;407;48.884;9.126;2022-12-18T00:33:44;-8.10;72.70
843;DHT22;407;48.884;9.126;2022-12-18T00:36:13;-8.00;1.00
843;DHT22;407;48.884;9.126;2022-12-18T00:38:39;-8.00;17.80
843;DHT22;407;48.884;9.126;2022-12-18T00:41:05;-8.00;1.00
843;DHT22;407;48.884;9.126;2022-12-18T00:43:31;-8.00;1.00
843;DHT22;407;48.884;9.126;2022-12-18T00:46:00;-8.20;1.00
843;DHT22;407;48.884;9.126;2022-12-18T00:48:25;-8.20;1.00
843;DHT22;407;48.884;9.126;2022-12-18T00:50:51;-8.20;1.00
843;DHT22;407;48.884;9.126;2022-12-18T00:53:17;-8.20;1.00
843;DHT22;407;48.884;9.126;2022-12-18T00:55:43;-8.20;11.20
843;DHT22;407;48.884;9.126;2022-12-18T00:58:10;-8.30;1.00
843;DHT22;407;48.884;9.126;2022-12-18T01:00:36;-8.40;99.90
843;DHT22;407;48.884;9.126;2022-12-18T01:03:02;-8.40;99.90
843;DHT22;407;48.884;9.126;2022-12-18T01:05:27;-8.50;99.90
843;DHT22;407;48.884;9.126;2022-12-18T01:07:53;-8.50;99.90
843;DHT22;407;48.884;9.126;2022-12-18T01:10:20;-8.40;99.90
843;DHT22;407;48.884;9.126;2022-12-18T01:12:45;-8.30;99.90
843;DHT22;407;48.884;9.126;2022-12-18T01:15:12;-8.20;99.90
843;DHT22;407;48.884;9.126;2022-12-18T01:17:38;-8.10;99.90
843;DHT22;407;48.884;9.126;2022-12-18T01:20:04;-8.10;69.20
843;DHT22;407;48.884;9.126;2022-12-18T01:22:30;-8.10;1.00
843;DHT22;407;48.884;9.126;2022-12-18T01:24:58;-8.10;1.00
843;DHT22;407;48.884;9.126;2022-12-18T01:27:24;-8.10;1.00
843;DHT22;407;48.884;9.126;2022-12-18T01:29:50;-8.10;1.00
843;DHT22;407;48.884;9.126;2022-12-18T01:32:15;-8.20;1.00
843;DHT22;407;48.884;9.126;2022-12-18T01:34:41;-8.20;1.00
843;DHT22;407;48.884;9.126;2022-12-18T01:37:06;-8.20;1.00
843;DHT22;407;48.884;9.126;2022-12-18T01:39:33;-8.20;99.90
843;DHT22;407;48.884;9.126;2022-12-18T01:41:59;-8.30;99.90
843;DHT22;407;48.884;9.126;2022-12-18T01:47:46;-8.30;1.00
843;DHT22;407;48.884;9.126;2022-12-18T01:50:19;-8.30;1.00
843;DHT22;407;48.884;9.126;2022-12-18T01:52:53;-8.40;1.00
843;DHT22;407;48.884;9.126;2022-12-18T01:55:24;-8.40;99.90
843;DHT22;407;48.884;9.126;2022-12-18T01:57:52;-8.40;99.90
843;DHT22;407;48.884;9.126;2022-12-18T02:00:21;-8.40;1.00
843;DHT22;407;48.884;9.126;2022-12-18T02:02:47;-8.50;1.00
843;DHT22;407;48.884;9.126;2022-12-18T02:05:16;-8.50;1.00
843;DHT22;407;48.884;9.126;2022-12-18T02:08:09;-8.60;1.00
843;DHT22;407;48.884;9.126;2022-12-18T02:10:41;-8.60;1.00
843;DHT22;407;48.884;9.126;2022-12-18T02:13:27;-8.60;1.00
843;DHT22;407;48.884;9.126;2022-12-18T02:16:05;-8.50;1.00
843;DHT22;407;48.884;9.126;2022-12-18T02:18:36;-8.50;1.00
843;DHT22;407;48.884;9.126;2022-12-18T02:21:08;-8.50;18.40
843;DHT22;407;48.884;9.126;2022-12-18T02:28:43;-8.30;59.10
843;DHT22;407;48.884;9.126;2022-12-18T02:31:14;-8.20;1.00
843;DHT22;407;48.884;9.126;2022-12-18T02:33:42;-8.20;99.90
843;DHT22;407;48.884;9.126;2022-12-18T02:36:10;-8.20;1.00
843;DHT22;407;48.884;9.126;2022-12-18T02:38:37;-8.90;1.00
843;DHT22;407;48.884;9.126;2022-12-18T02:41:04;-8.10;1.00
843;DHT22;407;48.884;9.126;2022-12-18T02:43:30;-8.10;26.70
843;DHT22;407;48.884;9.126;2022-12-18T02:45:58;-8.10;1.00
843;DHT22;407;48.884;9.126;2022-12-18T02:48:31;-8.10;1.00
843;DHT22;407;48.884;9.126;2022-12-18T02:51:21;-8.10;1.00
843;DHT22;407;48.884;9.126;2022-12-18T02:53:58;-8.00;1.00
843;DHT22;407;48.884;9.126;2022-12-18T02:56:36;-8.30;1.00
843;DHT22;407;48.884;9.126;2022-12-18T02:59:13;-8.10;1.00
843;DHT22;407;48.884;9.126;2022-12-18T03:04:16;-8.20;1.00
843;DHT22;407;48.884;9.126;2022-12-18T03:06:49;-8.30;57.90
843;DHT22;407;48.884;9.126;2022-12-18T03:09:24;-8.10;1.00
843;DHT22;407;48.884;9.126;2022-12-18T03:11:55;-8.20;1.00
843;DHT22;407;48.884;9.126;2022-12-18T03:14:42;-8.20;1.00
843;DHT22;407;48.884;9.126;2022-12-18T03:17:14;-8.30;1.00
843;DHT22;407;48.884;9.126;2022-12-18T03:19:42;-8.20;7.30
843;DHT22;407;48.884;9.126;2022-12-18T03:22:10;-8.30;1.00
843;DHT22;407;48.884;9.126;2022-12-18T03:24:36;-8.30;1.00
843;DHT22;407;48.884;9.126;2022-12-18T03:27:07;-8.20;99.90
843;DHT22;407;48.884;9.126;2022-12-18T03:29:45;-8.10;99.90
843;DHT22;407;48.884;9.126;2022-12-18T03:32:16;-8.00;1.00
843;DHT22;407;48.884;9.126;2022-12-18T03:34:47;-8.10;1.00
843;DHT22;407;48.884;9.126;2022-12-18T03:37:14;-8.00;39.80
843;DHT22;407;48.884;9.126;2022-12-18T03:39:40;-8.00;99.90
843;DHT22;407;48.884;9.126;2022-12-18T03:42:07;-8.00;4.50
843;DHT22;407;48.884;9.126;2022-12-18T03:45:02;-8.00;99.90
843;DHT22;407;48.884;9.126;2022-12-18T03:50:19;-8.00;1.00
843;DHT22;407;48.884;9.126;2022-12-18T03:55:16;-7.90;1.00
843;DHT22;407;48.884;9.126;2022-12-18T03:57:42;-7.90;99.90
843;DHT22;407;48.884;9.126;2022-12-18T04:00:14;-7.90;1.00
843;DHT22;407;48.884;9.126;2022-12-18T04:02:47;-8.00;38.40
843;DHT22;407;48.884;9.126;2022-12-18T04:05:15;-7.90;99.90
843;DHT22;407;48.884;9.126;2022-12-18T04:07:42;-7.90;99.90
843;DHT22;407;48.884;9.126;2022-12-18T04:10:10;-7.90;1.00
843;DHT22;407;48.884;9.126;2022-12-18T04:12:37;-8.00;99.90
843;DHT22;407;48.884;9.126;2022-12-18T04:15:04;-8.00;1.00
843;DHT22;407;48.884;9.126;2022-12-18T04:17:29;-7.90;99.90
843;DHT22;407;48.884;9.126;2022-12-18T04:19:55;-7.90;99.90
843;DHT22;407;48.884;9.126;2022-12-18T04:22:21;-7.90;99.90
843;DHT22;407;48.884;9.126;2022-12-18T04:24:46;-7.90;52.10
843;DHT22;407;48.884;9.126;2022-12-18T04:27:12;-7.90;1.00
843;DHT22;407;48.884;9.126;2022-12-18T04:29:38;-8.00;1.00
843;DHT22;407;48.884;9.126;2022-12-18T04:32:03;-7.90;63.80
843;DHT22;407;48.884;9.126;2022-12-18T04:34:29;-7.90;1.00
843;DHT22;407;48.884;9.126;2022-12-18T04:36:54;-7.90;1.00
843;DHT22;407;48.884;9.126;2022-12-18T04:39:20;-8.10;99.90
843;DHT22;407;48.884;9.126;2022-12-18T04:41:46;-8.10;99.90
843;DHT22;407;48.884;9.126;2022-12-18T04:44:11;-8.10;99.90
843;DHT22;407;48.884;9.126;2022-12-18T04:46:37;-8.10;1.00
843;DHT22;407;48.884;9.126;2022-12-18T04:49:02;-8.10;1.00
843;DHT22;407;48.884;9.126;2022-12-18T04:51:28;-8.10;99.90
843;DHT22;407;48.884;9.126;2022-12-18T04:53:53;-8.00;99.90
843;DHT22;407;48.884;9.126;2022-12-18T04:56:19;-7.90;1.00
843;DHT22;407;48.884;9.126;2022-12-18T04:58:45;-7.90;1.00
843;DHT22;407;48.884;9.126;2022-12-18T05:01:12;-8.00;99.90
843;DHT22;407;48.884;9.126;2022-12-18T05:03:38;-8.00;99.90
843;DHT22;407;48.884;9.126;2022-12-18T05:06:05;-8.00;29.60
843;DHT22;407;48.884;9.126;2022-12-18T05:08:31;-8.00;1.00
843;DHT22;407;48.884;9.126;2022-12-18T05:11:01;-8.00;99.90
843;DHT22;407;48.884;9.126;2022-12-18T05:13:28;-8.10;99.90
843;DHT22;407;48.884;9.126;2022-12-18T05:15:53;-8.00;99.90
843;DHT22;407;48.884;9.126;2022-12-18T05:18:19;-8.10;1.00
843;DHT22;407;48.884;9.126;2022-12-18T05:20:45;-8.10;1.00
843;DHT22;407;48.884;9.126;2022-12-18T05:23:11;-8.10;14.40
843;DHT22;407;48.884;9.126;2022-12-18T05:25:36;-8.00;99.90
843;DHT22;407;48.884;9.126;2022-12-18T05:28:02;-8.00;1.00
843;DHT22;407;48.884;9.126;2022-12-18T05:30:28;-7.90;99.90
843;DHT22;407;48.884;9.126;2022-12-18T05:32:53;-7.90;99.90
843;DHT22;407;48.884;9.126;2022-12-18T05:35:19;-7.90;99.90
843;DHT22;407;48.884;9.126;2022-12-18T05:37:45;-8.00;99.90
843;DHT22;407;48.884;9.126;2022-12-18T05:40:11;-8.10;1.00
843;DHT22;407;48.884;9.126;2022-12-18T05:42:37;-8.20;1.00
843;DHT22;407;48.884;9.126;2022-12-18T05:45:03;-8.10;99.90
843;DHT22;407;48.884;9.126;2022-12-18T05:47:28;-8.10;99.90
843;DHT22;407;48.884;9.126;2022-12-18T05:49:54;-8.10;99.90
843;DHT22;407;48.884;9.126;2022-12-18T05:52:20;-8.10;99.90
843;DHT22;407;48.884;9.126;2022-12-18T05:54:46;-8.10;1.00
843;DHT22;407;48.884;9.126;2022-12-18T05:57:11;-8.10;1.00
843;DHT22;407;48.884;9.126;2022-12-18T05:59:37;-8.20;17.50
843;DHT22;407;48.884;9.126;2022-12-18T06:02:02;-8.10;99.90
843;DHT22;407;48.884;9.126;2022-12-18T06:04:31;-8.00;99.90
843;DHT22;407;48.884;9.126;2022-12-18T06:06:57;-8.00;99.90
843;DHT22;407;48.884;9.126;2022-12-18T06:09:22;-8.20;56.00
843;DHT22;407;48.884;9.126;2022-12-18T06:11:48;-8.30;99.90
843;DHT22;407;48.884;9.126;2022-12-18T06:14:16;-8.30;1.00
843;DHT22;407;48.884;9.126;2022-12-18T06:16:42;-8.30;99.90
843;DHT22;407;48.884;9.126;2022-12-18T06:19:12;-8.30;1.00
843;DHT22;407;48.884;9.126;2022-12-18T06:21:39;-8.50;1.00
843;DHT22;407;48.884;9.126;2022-12-18T06:24:05;-8.60;1.00
843;DHT22;407;48.884;9.126;2022-12-18T06:26:30;-8.70;1.00
843;DHT22;407;48.884;9.126;2022-12-18T06:28:56;-8.70;1.00
843;DHT22;407;48.884;9.126;2022-12-18T06:31:22;-8.70;99.90
843;DHT22;407;48.884;9.126;2022-12-18T06:33:47;-8.70;99.90
843;DHT22;407;48.884;9.126;2022-12-18T06:36:14;-8.80;1.00
843;DHT22;407;48.884;9.126;2022-12-18T06:38:42;-8.80;99.90
843;DHT22;407;48.884;9.126;2022-12-18T06:41:09;-8.70;99.90
843;DHT22;407;48.884;9.126;2022-12-18T06:43:35;-8.80;43.60
843;DHT22;407;48.884;9.126;2022-12-18T06:46:01;-8.80;1.00
843;DHT22;407;48.884;9.126;2022-12-18T06:48:27;-9.00;1.00
843;DHT22;407;48.884;9.126;2022-12-18T06:50:52;-9.10;1.00
843;DHT22;407;48.884;9.126;2022-12-18T06:53:18;-9.00;1.00
843;DHT22;407;48.884;9.126;2022-12-18T06:55:44;-9.10;1.00
843;DHT22;407;48.884;9.126;2022-12-18T06:58:09;-9.10;99.90
843;DHT22;407;48.884;9.126;2022-12-18T07:00:35;-9.10;99.90
843;DHT22;407;48.884;9.126;2022-12-18T07:03:00;-9.00;99.90
843;DHT22;407;48.884;9.126;2022-12-18T07:05:26;-8.90;99.90
843;DHT22;407;48.884;9.126;2022-12-18T07:07:52;-8.80;99.90
843;DHT22;407;48.884;9.126;2022-12-18T07:10:17;-8.80;99.90
843;DHT22;407;48.884;9.126;2022-12-18T07:12:43;-8.80;1.00
843;DHT22;407;48.884;9.126;2022-12-18T07:15:09;-8.80;1.00
843;DHT22;407;48.884;9.126;2022-12-18T07:17:35;-8.80;1.00
843;DHT22;407;48.884;9.126;2022-12-18T07:20:00;-8.80;87.70
843;DHT22;407;48.884;9.126;2022-12-18T07:22:26;-8.70;99.90
843;DHT22;407;48.884;9.126;2022-12-18T07:24:52;-8.70;1.00
843;DHT22;407;48.884;9.126;2022-12-18T07:27:18;-8.60;1.00
843;DHT22;407;48.884;9.126;2022-12-18T07:29:43;-8.50;1.00
843;DHT22;407;48.884;9.126;2022-12-18T07:32:09;-8.50;99.90
843;DHT22;407;48.884;9.126;2022-12-18T07:34:34;-8.40;99.90
843;DHT22;407;48.884;9.126;2022-12-18T07:37:00;-8.30;99.90
843;DHT22;407;48.884;9.126;2022-12-18T07:39:26;-8.40;99.90
843;DHT22;407;48.884;9.126;2022-12-18T07:41:52;-8.30;99.90
843;DHT22;407;48.884;9.126;2022-12-18T07:44:36;-8.20;99.90
843;DHT22;407;48.884;9.126;2022-12-18T07:47:01;-8.10;5.70
843;DHT22;407;48.884;9.126;2022-12-18T07:49:27;-8.00;1.00
843;DHT22;407;48.884;9.126;2022-12-18T07:51:57;-8.00;1.00
843;DHT22;407;48.884;9.126;2022-12-18T07:54:24;-7.90;1.00
843;DHT22;407;48.884;9.126;2022-12-18T07:56:51;-8.00;1.00
843;DHT22;407;48.884;9.126;2022-12-18T07:59:17;-8.10;99.90
843;DHT22;407;48.884;9.126;2022-12-18T08:01:42;-7.90;1.00
843;DHT22;407;48.884;9.126;2022-12-18T08:04:08;-7.90;1.00
843;DHT22;407;48.884;9.126;2022-12-18T08:06:34;-7.80;99.90
843;DHT22;407;48.884;9.126;2022-12-18T08:08:59;-7.70;1.00
843;DHT22;407;48.884;9.126;2022-12-18T08:11:27;-7.80;99.90
843;DHT22;407;48.884;9.126;2022-12-18T08:13:53;-7.70;99.90
843;DHT22;407;48.884;9.126;2022-12-18T08:16:19;-7.50;99.90
843;DHT22;407;48.884;9.126;2022-12-18T08:18:45;-7.40;99.90
843;DHT22;407;48.884;9.126;2022-12-18T08:21:12;-7.20;99.90
843;DHT22;407;48.884;9.126;2022-12-18T08:23:38;-7.10;99.90
843;DHT22;407;48.884;9.126;2022-12-18T08:26:04;-7.00;99.90
843;DHT22;407;48.884;9.126;2022-12-18T08:28:30;-6.90;99.90
843;DHT22;407;48.884;9.126;2022-12-18T08:30:56;-6.80;99.90
843;DHT22;407;48.884;9.126;2022-12-18T08:33:21;-6.70;99.90
843;DHT22;407;48.884;9.126;2022-12-18T08:35:47;-6.60;99.90
843;DHT22;407;48.884;9.126;2022-12-18T08:38:12;-6.30;99.90
843;DHT22;407;48.884;9.126;2022-12-18T08:40:38;-6.30;99.90
843;DHT22;407;48.884;9.126;2022-12-18T08:43:04;-6.20;99.90
843;DHT22;407;48.884;9.126;2022-12-18T08:45:48;-6.10;99.90
843;DHT22;407;48.884;9.126;2022-12-18T08:48:14;-6.10;99.90
843;DHT22;407;48.884;9.126;2022-12-18T08:50:40;-6.00;99.90
843;DHT22;407;48.884;9.126;2022-12-18T08:53:06;-5.90;99.90
843;DHT22;407;48.884;9.126;2022-12-18T08:55:31;-5.80;99.90
843;DHT22;407;48.884;9.126;2022-12-18T08:57:57;-5.60;99.90
843;DHT22;407;48.884;9.126;2022-12-18T09:00:22;-5.40;99.90
843;DHT22;407;48.884;9.126;2022-12-18T09:02:48;-5.30;99.90
843;DHT22;407;48.884;9.126;2022-12-18T09:05:14;-4.90;99.90
843;DHT22;407;48.884;9.126;2022-12-18T09:07:39;-4.20;99.90
843;DHT22;407;48.884;9.126;2022-12-18T09:10:06;-3.40;99.90
843;DHT22;407;48.884;9.126;2022-12-18T09:12:31;-2.40;99.90
843;DHT22;407;48.884;9.126;2022-12-18T09:14:57;-1.30;99.90
843;DHT22;407;48.884;9.126;2022-12-18T09:17:23;-0.10;54.10
843;DHT22;407;48.884;9.126;2022-12-18T09:19:48;0.80;1.00
843;DHT22;407;48.884;9.126;2022-12-18T09:22:14;1.20;1.00
843;DHT22;407;48.884;9.126;2022-12-18T09:24:40;1.40;99.90
843;DHT22;407;48.884;9.126;2022-12-18T09:27:05;1.70;99.90
843;DHT22;407;48.884;9.126;2022-12-18T09:29:32;1.70;99.90
843;DHT22;407;48.884;9.126;2022-12-18T09:31:57;1.40;99.90
843;DHT22;407;48.884;9.126;2022-12-18T09:34:23;1.10;99.90
843;DHT22;407;48.884;9.126;2022-12-18T09:36:49;1.50;99.90
843;DHT22;407;48.884;9.126;2022-12-18T09:39:15;2.30;99.90
843;DHT22;407;48.884;9.126;2022-12-18T09:41:53;3.10;99.90
843;DHT22;407;48.884;9.126;2022-12-18T09:44:43;3.50;99.90
843;DHT22;407;48.884;9.126;2022-12-18T09:47:36;3.80;99.90
843;DHT22;407;48.884;9.126;2022-12-18T09:50:06;4.20;99.90
843;DHT22;407;48.884;9.126;2022-12-18T09:52:43;4.10;99.90
843;DHT22;407;48.884;9.126;2022-12-18T09:55:28;3.40;99.90
843;DHT22;407;48.884;9.126;2022-12-18T09:58:00;3.80;99.90
843;DHT22;407;48.884;9.126;2022-12-18T10:00:27;4.90;99.90
843;DHT22;407;48.884;9.126;2022-12-18T10:03:00;4.90;1.00
843;DHT22;407;48.884;9.126;2022-12-18T10:08:28;5.90;99.90
843;DHT22;407;48.884;9.126;2022-12-18T10:11:10;5.90;99.90
843;DHT22;407;48.884;9.126;2022-12-18T10:13:52;6.20;99.90
843;DHT22;407;48.884;9.126;2022-12-18T10:16:49;7.10;99.90
843;DHT22;407;48.884;9.126;2022-12-18T10:19:47;7.70;99.90
843;DHT22;407;48.884;9.126;2022-12-18T10:27:46;8.10;99.90
843;DHT22;407;48.884;9.126;2022-12-18T10:30:15;8.40;99.90
843;DHT22;407;48.884;9.126;2022-12-18T10:32:41;8.80;99.90
843;DHT22;407;48.884;9.126;2022-12-18T10:35:26;8.80;99.90
843;DHT22;407;48.884;9.126;2022-12-18T10:43:15;7.70;99.90
843;DHT22;407;48.884;9.126;2022-12-18T10:45:41;7.90;99.90
843;DHT22;407;48.884;9.126;2022-12-18T10:48:18;7.60;99.90
843;DHT22;407;48.884;9.126;2022-12-18T10:50:48;6.70;99.90
843;DHT22;407;48.884;9.126;2022-12-18T10:53:20;6.20;99.90
843;DHT22;407;48.884;9.126;2022-12-18T10:55:47;5.60;99.90
843;DHT22;407;48.884;9.126;2022-12-18T11:06:12;5.70;99.90
843;DHT22;407;48.884;9.126;2022-12-18T11:08:38;5.20;99.90
843;DHT22;407;48.884;9.126;2022-12-18T11:11:07;5.60;99.90
843;DHT22;407;48.884;9.126;2022-12-18T11:13:40;5.30;99.90
843;DHT22;407;48.884;9.126;2022-12-18T11:16:20;4.20;99.90
843;DHT22;407;48.884;9.126;2022-12-18T11:18:46;4.10;99.90
843;DHT22;407;48.884;9.126;2022-12-18T11:21:13;3.60;99.90
843;DHT22;407;48.884;9.126;2022-12-18T11:23:53;3.30;99.90
843;DHT22;407;48.884;9.126;2022-12-18T11:26:19;4.80;99.90
843;DHT22;407;48.884;9.126;2022-12-18T11:29:07;2.90;99.90
843;DHT22;407;48.884;9.126;2022-12-18T11:31:33;2.90;99.90
843;DHT22;407;48.884;9.126;2022-12-18T11:34:11;2.90;99.90
843;DHT22;407;48.884;9.126;2022-12-18T11:36:44;2.70;99.90
843;DHT22;407;48.884;9.126;2022-12-18T11:39:45;2.60;99.90
843;DHT22;407;48.884;9.126;2022-12-18T11:42:20;2.30;99.90
843;DHT22;407;48.884;9.126;2022-12-18T11:50:24;1.90;1.00
843;DHT22;407;48.884;9.126;2022-12-18T11:52:50;2.20;1.00
843;DHT22;407;48.884;9.126;2022-12-18T12:01:27;2.00;1.00
843;DHT22;407;48.884;9.126;2022-12-18T12:12:26;1.20;1.00
843;DHT22;407;48.884;9.126;2022-12-18T12:17:42;1.00;99.90
843;DHT22;407;48.884;9.126;2022-12-18T12:25:59;0.60;99.90
843;DHT22;407;48.884;9.126;2022-12-18T12:34:01;0.20;99.90
843;DHT22;407;48.884;9.126;2022-12-18T12:39:10;0.40;99.90
843;DHT22;407;48.884;9.126;2022-12-18T12:41:39;0.50;1.00
843;DHT22;407;48.884;9.126;2022-12-18T12:44:32;0.60;1.00
843;DHT22;407;48.884;9.126;2022-12-18T12:47:03;0.70;99.90
843;DHT22;407;48.884;9.126;2022-12-18T12:49:32;0.90;99.90
843;DHT22;407;48.884;9.126;2022-12-18T12:52:12;1.10;1.00
843;DHT22;407;48.884;9.126;2022-12-18T12:54:39;1.10;99.90
843;DHT22;407;48.884;9.126;2022-12-18T13:00:15;1.10;99.90
843;DHT22;407;48.884;9.126;2022-12-18T13:03:09;1.20;99.90
843;DHT22;407;48.884;9.126;2022-12-18T13:05:44;1.50;99.90
843;DHT22;407;48.884;9.126;2022-12-18T13:08:31;1.40;99.90
843;DHT22;407;48.884;9.126;2022-12-18T13:11:31;1.50;99.90
843;DHT22;407;48.884;9.126;2022-12-18T13:14:37;1.60;99.90
843;DHT22;407;48.884;9.126;2022-12-18T13:17:26;1.80;99.90
843;DHT22;407;48.884;9.126;2022-12-18T13:20:10;1.80;1.00
843;DHT22;407;48.884;9.126;2022-12-18T13:22:38;1.60;99.90
843;DHT22;407;48.884;9.126;2022-12-18T13:25:31;1.50;99.90
843;DHT22;407;48.884;9.126;2022-12-18T13:28:03;1.50;99.90
843;DHT22;407;48.884;9.126;2022-12-18T13:35:41;1.30;99.90
843;DHT22;407;48.884;9.126;2022-12-18T13:40:56;1.20;99.90
843;DHT22;407;48.884;9.126;2022-12-18T13:48:34;1.40;99.90
843;DHT22;407;48.884;9.126;2022-12-18T13:51:05;1.10;99.90
843;DHT22;407;48.884;9.126;2022-12-18T13:53:42;1.10;99.90
843;DHT22;407;48.884;9.126;2022-12-18T13:56:08;1.00;99.90
843;DHT22;407;48.884;9.126;2022-12-18T13:58:34;0.80;99.90
843;DHT22;407;48.884;9.126;2022-12-18T14:01:00;0.60;99.90
843;DHT22;407;48.884;9.126;2022-12-18T14:03:28;0.50;99.90
843;DHT22;407;48.884;9.126;2022-12-18T14:06:01;0.40;99.90
843;DHT22;407;48.884;9.126;2022-12-18T14:08:33;0.50;99.90
843;DHT22;407;48.884;9.126;2022-12-18T14:11:00;0.60;99.90
843;DHT22;407;48.884;9.126;2022-12-18T14:13:30;0.60;99.90
843;DHT22;407;48.884;9.126;2022-12-18T14:15:56;0.60;99.90
843;DHT22;407;48.884;9.126;2022-12-18T14:20:58;0.60;99.90
843;DHT22;407;48.884;9.126;2022-12-18T14:25:57;0.30;1.00
843;DHT22;407;48.884;9.126;2022-12-18T14:28:23;0.10;99.90
843;DHT22;407;48.884;9.126;2022-12-18T14:30:49;-0.10;1.00
843;DHT22;407;48.884;9.126;2022-12-18T14:33:21;0.00;99.90
843;DHT22;407;48.884;9.126;2022-12-18T14:36:02;-0.10;99.90
843;DHT22;407;48.884;9.126;2022-12-18T14:38:32;0.00;99.90
843;DHT22;407;48.884;9.126;2022-12-18T14:41:06;0.00;99.90
843;DHT22;407;48.884;9.126;2022-12-18T14:43:37;-0.10;99.90
843;DHT22;407;48.884;9.126;2022-12-18T15:18:01;-1.60;99.90
843;DHT22;407;48.884;9.126;2022-12-18T15:20:27;-1.60;99.90
843;DHT22;407;48.884;9.126;2022-12-18T15:22:55;-1.80;99.90
843;DHT22;407;48.884;9.126;2022-12-18T15:27:58;-1.90;99.90
843;DHT22;407;48.884;9.126;2022-12-18T15:30:26;-1.90;99.90
843;DHT22;407;48.884;9.126;2022-12-18T15:33:25;-2.00;99.90
843;DHT22;407;48.884;9.126;2022-12-18T15:36:02;-1.90;99.90
843;DHT22;407;48.884;9.126;2022-12-18T15:38:28;-2.10;99.90
843;DHT22;407;48.884;9.126;2022-12-18T15:40:54;-2.10;99.90
843;DHT22;407;48.884;9.126;2022-12-18T15:43:24;-2.20;99.90
843;DHT22;407;48.884;9.126;2022-12-18T15:46:02;-2.30;99.90
843;DHT22;407;48.884;9.126;2022-12-18T15:48:29;-2.20;99.90
843;DHT22;407;48.884;9.126;2022-12-18T15:50:56;-2.20;99.90
843;DHT22;407;48.884;9.126;2022-12-18T15:53:24;-2.40;99.90
843;DHT22;407;48.884;9.126;2022-12-18T15:55:50;-2.20;1.00
843;DHT22;407;48.884;9.126;2022-12-18T15:58:35;-2.40;1.00
843;DHT22;407;48.884;9.126;2022-12-18T16:01:01;-2.40;1.00
843;DHT22;407;48.884;9.126;2022-12-18T16:05:53;-2.20;99.90
843;DHT22;407;48.884;9.126;2022-12-18T16:08:19;-2.30;99.90
843;DHT22;407;48.884;9.126;2022-12-18T16:10:44;-2.40;99.90
843;DHT22;407;48.884;9.126;2022-12-18T16:13:11;-2.30;1.00
843;DHT22;407;48.884;9.126;2022-12-18T16:15:37;-2.40;1.00
843;DHT22;407;48.884;9.126;2022-12-18T16:18:03;-2.50;1.00
843;DHT22;407;48.884;9.126;2022-12-18T16:20:28;-1.70;1.00
843;DHT22;407;48.884;9.126;2022-12-18T16:22:54;-2.50;1.00
843;DHT22;407;48.884;9.126;2022-12-18T16:25:21;-2.60;1.00
843;DHT22;407;48.884;9.126;2022-12-18T16:27:48;-2.60;1.00
843;DHT22;407;48.884;9.126;2022-12-18T16:30:20;-2.70;96.10
843;DHT22;407;48.884;9.126;2022-12-18T16:32:46;-2.70;99.90
843;DHT22;407;48.884;9.126;2022-12-18T16:35:13;-2.70;99.90
843;DHT22;407;48.884;9.126;2022-12-18T16:37:40;-2.60;1.00
843;DHT22;407;48.884;9.126;2022-12-18T16:40:11;-2.50;1.00
843;DHT22;407;48.884;9.126;2022-12-18T16:42:39;-2.50;1.00
843;DHT22;407;48.884;9.126;2022-12-18T16:45:07;-2.50;99.90
843;DHT22;407;48.884;9.126;2022-12-18T16:47:34;-2.40;99.90
843;DHT22;407;48.884;9.126;2022-12-18T16:49:59;-2.40;99.90
843;DHT22;407;48.884;9.126;2022-12-18T16:54:51;-2.30;99.90
843;DHT22;407;48.884;9.126;2022-12-18T16:57:19;-2.30;57.20
843;DHT22;407;48.884;9.126;2022-12-18T16:59:45;-2.50;11.10
843;DHT22;407;48.884;9.126;2022-12-18T17:02:17;-2.60;99.90
843;DHT22;407;48.884;9.126;2022-12-18T17:04:43;-1.90;99.90
843;DHT22;407;48.884;9.126;2022-12-18T17:07:09;-2.40;99.90
843;DHT22;407;48.884;9.126;2022-12-18T17:09:35;-2.30;1.00
843;DHT22;407;48.884;9.126;2022-12-18T17:12:00;-2.30;29.00
843;DHT22;407;48.884;9.126;2022-12-18T17:14:26;-2.30;61.50
843;DHT22;407;48.884;9.126;2022-12-18T17:16:52;-2.30;96.70
843;DHT22;407;48.884;9.126;2022-12-18T17:19:19;-2.30;99.90
843;DHT22;407;48.884;9.126;2022-12-18T17:21:47;-2.20;99.90
843;DHT22;407;48.884;9.126;2022-12-18T17:24:14;-2.20;99.90
843;DHT22;407;48.884;9.126;2022-12-18T17:26:39;-2.20;99.90
843;DHT22;407;48.884;9.126;2022-12-18T17:29:05;-2.20;99.90
843;DHT22;407;48.884;9.126;2022-12-18T17:31:32;-2.20;1.00
843;DHT22;407;48.884;9.126;2022-12-18T17:34:00;-2.10;99.90
843;DHT22;407;48.884;9.126;2022-12-18T17:36:26;-2.10;99.90
843;DHT22;407;48.884;9.126;2022-12-18T17:39:00;-2.10;99.90
843;DHT22;407;48.884;9.126;2022-12-18T17:41:27;-2.20;99.90
843;DHT22;407;48.884;9.126;2022-12-18T17:43:58;-2.10;99.90
843;DHT22;407;48.884;9.126;2022-12-18T17:46:25;-2.20;99.90
843;DHT22;407;48.884;9.126;2022-12-18T17:48:52;-2.20;1.00
843;DHT22;407;48.884;9.126;2022-12-18T17:51:19;-2.30;1.00
843;DHT22;407;48.884;9.126;2022-12-18T17:53:44;-2.30;1.00
843;DHT22;407;48.884;9.126;2022-12-18T17:56:15;-2.20;99.90
843;DHT22;407;48.884;9.126;2022-12-18T17:58:41;-2.10;1.00
843;DHT22;407;48.884;9.126;2022-12-18T18:01:07;-2.00;99.90
843;DHT22;407;48.884;9.126;2022-12-18T18:03:33;-2.00;99.90
843;DHT22;407;48.884;9.126;2022-12-18T18:06:03;-1.90;99.90
843;DHT22;407;48.884;9.126;2022-12-18T18:08:29;-1.90;99.90
843;DHT22;407;48.884;9.126;2022-12-18T18:10:56;-1.90;99.90
843;DHT22;407;48.884;9.126;2022-12-18T18:13:42;-1.80;99.90
843;DHT22;407;48.884;9.126;2022-12-18T18:16:38;-2.00;99.90
843;DHT22;407;48.884;9.126;2022-12-18T18:19:07;-1.90;99.90
843;DHT22;407;48.884;9.126;2022-12-18T18:21:33;-1.90;99.90
843;DHT22;407;48.884;9.126;2022-12-18T18:24:03;-1.90;39.80
843;DHT22;407;48.884;9.126;2022-12-18T18:26:30;-1.80;1.00
843;DHT22;407;48.884;9.126;2022-12-18T18:28:57;-2.00;19.30
843;DHT22;407;48.884;9.126;2022-12-18T18:31:23;-2.10;43.90
843;DHT22;407;48.884;9.126;2022-12-18T18:33:49;-2.00;79.00
843;DHT22;407;48.884;9.126;2022-12-18T18:36:15;-2.10;99.90
843;DHT22;407;48.884;9.126;2022-12-18T18:38:40;-2.10;99.90
843;DHT22;407;48.884;9.126;2022-12-18T18:41:06;-2.10;99.90
843;DHT22;407;48.884;9.126;2022-12-18T18:43:32;-2.10;99.90
843;DHT22;407;48.884;9.126;2022-12-18T18:46:00;-2.10;99.90
843;DHT22;407;48.884;9.126;2022-12-18T18:48:26;-2.10;95.00
843;DHT22;407;48.884;9.126;2022-12-18T18:51:20;-2.20;89.80
843;DHT22;407;48.884;9.126;2022-12-18T18:53:46;-2.00;99.90
843;DHT22;407;48.884;9.126;2022-12-18T18:56:15;-2.10;1.00
843;DHT22;407;48.884;9.126;2022-12-18T18:58:42;-2.00;1.00
843;DHT22;407;48.884;9.126;2022-12-18T19:01:11;-1.90;1.00
843;DHT22;407;48.884;9.126;2022-12-18T19:03:37;-2.00;1.00
843;DHT22;407;48.884;9.126;2022-12-18T19:06:06;-2.00;1.00
843;DHT22;407;48.884;9.126;2022-12-18T19:08:36;-1.80;1.00
843;DHT22;407;48.884;9.126;2022-12-18T19:11:04;-1.70;1.00
843;DHT22;407;48.884;9.126;2022-12-18T19:13:32;-1.60;1.00